Time;durP1;ratioP1;P1;durP2;ratioP2;P2;SDS_P1;SDS_P2;PMS_P1;PMS_P2;Temp;Humidity;BMP_temperature;BMP_pressure;BME280_temperature;BME280_humidity;BME280_pressure;Samples;Min_cycle;Max_cycle;Signal;HPM_P1;HPM_P2
2021/08/27 00:01:50;;;;;;;20.43;18.70;;;;;;;;;;5055940;28;20454;-84
2021/08/27 00:04:19;;;;;;;19.00;17.70;;;;;;;;;;5056026;28;20415;-84
2021/08/27 00:06:46;;;;;;;17.90;16.80;;;;;;;;;;5055765;28;20479;-83
2021/08/27 00:09:14;;;;;;;19.17;17.47;;;;;;;;;;5055746;28;20438;-84
2021/08/27 00:11:41;;;;;;;18.63;17.00;;;;;;;;;;5055784;28;20454;-84
2021/08/27 00:14:09;;;;;;;17.67;16.47;;;;;;;;;;5055505;28;20429;-84
2021/08/27 00:16:36;;;;;;;18.40;17.10;;;;;;;;;;5055749;28;20454;-84
2021/08/27 00:19:04;;;;;;;19.27;17.87;;;;;;;;;;5055280;28;20420;-83
2021/08/27 00:21:33;;;;;;;18.70;17.50;;;;;;;;;;5055758;28;20494;-84
2021/08/27 00:24:01;;;;;;;18.90;17.70;;;;;;;;;;5055781;28;20421;-84
2021/08/27 00:26:28;;;;;;;20.63;18.50;;;;;;;;;;5055509;28;20490;-84
2021/08/27 00:28:56;;;;;;;19.10;17.43;;;;;;;;;;5055567;28;20766;-83
2021/08/27 00:31:23;;;;;;;19.57;17.97;;;;;;;;;;5037923;28;20426;-84
2021/08/27 00:33:51;;;;;;;19.00;17.63;;;;;;;;;;5055678;28;20435;-83
2021/08/27 00:36:18;;;;;;;19.63;17.83;;;;;;;;;;5055636;28;20420;-84
2021/08/27 00:38:47;;;;;;;19.40;18.00;;;;;;;;;;5054952;28;20433;-84
2021/08/27 00:41:14;;;;;;;19.03;17.70;;;;;;;;;;5055582;28;20478;-83
2021/08/27 00:43:42;;;;;;;19.13;17.53;;;;;;;;;;5054741;28;20447;-84
2021/08/27 00:46:09;;;;;;;18.63;17.40;;;;;;;;;;5054805;28;20413;-83
2021/08/27 00:48:37;;;;;;;19.40;17.80;;;;;;;;;;5037053;28;20507;-84
2021/08/27 00:51:04;;;;;;;18.70;17.40;;;;;;;;;;5054827;28;20832;-83
2021/08/27 00:53:32;;;;;;;18.87;17.37;;;;;;;;;;5055136;28;20414;-84
2021/08/27 00:56:01;;;;;;;18.70;17.50;;;;;;;;;;5054646;28;20929;-83
2021/08/27 00:58:29;;;;;;;19.47;18.00;;;;;;;;;;5054959;28;20413;-84
2021/08/27 01:00:57;;;;;;;18.93;17.70;;;;;;;;;;5054630;28;20891;-83
2021/08/27 01:03:25;;;;;;;19.30;18.00;;;;;;;;;;5054868;28;20530;-84
2021/08/27 01:05:58;;;;;;;18.50;17.23;;;;;;;;;;5054590;28;20454;-83
2021/08/27 01:08:30;;;;;;;19.10;17.80;;;;;;;;;;5054817;28;20464;-84
2021/08/27 01:11:02;;;;;;;19.47;18.03;;;;;;;;;;5054562;28;20448;-83
2021/08/27 01:13:35;;;;;;;17.80;16.73;;;;;;;;;;5054210;28;20435;-83
2021/08/27 01:16:05;;;;;;;19.23;17.67;;;;;;;;;;5054337;28;20420;-84
2021/08/27 01:18:36;;;;;;;18.90;17.50;;;;;;;;;;5054363;28;20420;-83
2021/08/27 01:21:24;;;;;;;18.50;17.20;;;;;;;;;;5054116;28;20449;-83
2021/08/27 01:23:52;;;;;;;20.07;18.50;;;;;;;;;;5049401;28;20447;-84
2021/08/27 01:26:21;;;;;;;19.13;17.83;;;;;;;;;;5054188;28;20785;-83
2021/08/27 01:28:51;;;;;;;20.13;18.30;;;;;;;;;;5036626;28;21000;-84
2021/08/27 01:31:21;;;;;;;18.47;17.10;;;;;;;;;;5054392;28;20413;-83
2021/08/27 01:33:58;;;;;;;20.33;18.20;;;;;;;;;;5054275;28;20442;-83
2021/08/27 01:36:28;;;;;;;17.90;16.87;;;;;;;;;;5053888;28;20447;-83
2021/08/27 01:38:56;;;;;;;18.43;17.03;;;;;;;;;;5054408;28;20797;-84
2021/08/27 01:41:24;;;;;;;19.00;17.37;;;;;;;;;;5054532;28;20416;-83
2021/08/27 01:43:52;;;;;;;17.90;16.87;;;;;;;;;;5053841;28;20776;-83
2021/08/27 01:46:20;;;;;;;20.07;18.50;;;;;;;;;;5053959;28;20439;-83
2021/08/27 01:48:47;;;;;;;18.30;17.00;;;;;;;;;;5054252;28;20478;-83
2021/08/27 01:51:16;;;;;;;19.17;17.77;;;;;;;;;;5054148;28;20438;-83
2021/08/27 01:53:45;;;;;;;18.70;17.40;;;;;;;;;;5053655;28;20435;-83
2021/08/27 01:56:12;;;;;;;18.47;17.10;;;;;;;;;;5035797;28;20971;-83
2021/08/27 01:58:40;;;;;;;18.33;17.10;;;;;;;;;;5053678;28;20421;-83
2021/08/27 02:01:08;;;;;;;19.53;18.00;;;;;;;;;;5053685;28;20413;-83
2021/08/27 02:03:35;;;;;;;18.10;17.03;;;;;;;;;;5053850;28;20445;-83
2021/08/27 02:06:03;;;;;;;18.37;16.87;;;;;;;;;;5053849;28;20936;-84
2021/08/27 02:08:31;;;;;;;18.10;17.00;;;;;;;;;;5053646;28;20450;-84
2021/08/27 02:11:00;;;;;;;18.00;16.70;;;;;;;;;;5053420;28;20669;-84
2021/08/27 02:13:28;;;;;;;17.47;16.57;;;;;;;;;;5053693;28;20441;-83
2021/08/27 02:15:56;;;;;;;19.27;17.67;;;;;;;;;;5053514;28;20947;-84
2021/08/27 02:18:24;;;;;;;18.20;16.83;;;;;;;;;;5053871;28;20449;-84
2021/08/27 02:20:52;;;;;;;17.47;16.33;;;;;;;;;;5053793;28;20575;-84
2021/08/27 02:23:23;;;;;;;18.40;17.10;;;;;;;;;;5053638;28;20442;-84
2021/08/27 02:25:51;;;;;;;18.93;17.47;;;;;;;;;;5053310;28;20482;-83
2021/08/27 02:28:21;;;;;;;17.97;16.80;;;;;;;;;;5053475;28;20457;-83
2021/08/27 02:30:49;;;;;;;18.50;17.40;;;;;;;;;;5053963;28;20421;-83
2021/08/27 02:33:18;;;;;;;18.83;17.37;;;;;;;;;;5053251;28;20438;-83
2021/08/27 02:35:46;;;;;;;19.50;17.97;;;;;;;;;;5053699;28;20420;-84
2021/08/27 02:38:16;;;;;;;18.60;17.30;;;;;;;;;;5053624;28;20810;-83
2021/08/27 02:40:43;;;;;;;19.00;17.80;;;;;;;;;;5053228;28;20401;-83
2021/08/27 02:43:11;;;;;;;18.63;17.30;;;;;;;;;;5053389;28;20420;-84
2021/08/27 02:45:40;;;;;;;18.77;17.17;;;;;;;;;;5053419;28;20439;-83
2021/08/27 02:48:08;;;;;;;19.13;17.80;;;;;;;;;;5053461;28;20486;-83
2021/08/27 02:50:38;;;;;;;21.03;19.00;;;;;;;;;;5053009;28;20413;-83
2021/08/27 02:53:07;;;;;;;17.63;16.43;;;;;;;;;;5053425;28;20410;-83
2021/08/27 02:55:37;;;;;;;18.73;17.43;;;;;;;;;;5053248;28;20521;-83
2021/08/27 02:58:06;;;;;;;18.77;17.23;;;;;;;;;;5053346;28;20401;-83
2021/08/27 03:00:36;;;;;;;20.20;17.20;;;;;;;;;;5035983;28;20410;-83
2021/08/27 03:03:05;;;;;;;19.00;17.40;;;;;;;;;;5053454;28;20417;-83
2021/08/27 03:05:35;;;;;;;20.77;19.23;;;;;;;;;;5053309;28;20437;-83
2021/08/27 03:08:05;;;;;;;19.33;17.70;;;;;;;;;;5056978;28;20470;-82
2021/08/27 03:10:34;;;;;;;19.93;17.47;;;;;;;;;;5057045;28;20430;-83
2021/08/27 03:13:04;;;;;;;18.27;17.07;;;;;;;;;;5056933;28;20435;-83
2021/08/27 03:15:35;;;;;;;19.23;17.67;;;;;;;;;;5039233;28;20424;-83
2021/08/27 03:18:07;;;;;;;18.30;17.10;;;;;;;;;;5056845;28;20755;-83
2021/08/27 03:20:40;;;;;;;18.10;16.93;;;;;;;;;;5056469;28;20429;-83
2021/08/27 03:23:09;;;;;;;19.37;17.77;;;;;;;;;;5056349;28;20439;-83
2021/08/27 03:25:39;;;;;;;18.90;17.67;;;;;;;;;;5057025;28;20549;-83
2021/08/27 03:28:10;;;;;;;17.90;16.70;;;;;;;;;;5056700;28;20885;-83
2021/08/27 03:30:37;;;;;;;18.37;17.07;;;;;;;;;;5056750;28;20409;-83
2021/08/27 03:33:08;;;;;;;18.13;16.70;;;;;;;;;;5056453;28;20446;-83
2021/08/27 03:35:36;;;;;;;19.93;17.80;;;;;;;;;;5056446;28;20813;-83
2021/08/27 03:38:06;;;;;;;19.00;17.57;;;;;;;;;;5056378;28;20413;-83
2021/08/27 03:40:34;;;;;;;18.77;17.27;;;;;;;;;;5056450;28;20459;-83
2021/08/27 03:43:02;;;;;;;17.93;16.80;;;;;;;;;;5055910;28;20417;-82
2021/08/27 03:45:31;;;;;;;18.80;17.23;;;;;;;;;;5056100;28;20478;-83
2021/08/27 03:47:59;;;;;;;18.47;17.07;;;;;;;;;;5056269;28;20572;-83
2021/08/27 03:50:29;;;;;;;19.00;17.20;;;;;;;;;;5056126;28;20438;-83
2021/08/27 03:52:56;;;;;;;19.77;18.23;;;;;;;;;;5055836;28;20421;-83
2021/08/27 03:55:24;;;;;;;18.97;17.30;;;;;;;;;;5056087;28;20454;-83
2021/08/27 03:57:52;;;;;;;18.27;17.03;;;;;;;;;;5056054;28;20441;-83
2021/08/27 04:00:21;;;;;;;18.63;17.33;;;;;;;;;;5055996;28;20441;-83
2021/08/27 04:02:49;;;;;;;17.80;16.80;;;;;;;;;;5055621;28;20441;-83
2021/08/27 04:05:17;;;;;;;18.90;17.33;;;;;;;;;;5055736;28;20429;-83
2021/08/27 04:07:46;;;;;;;18.70;17.50;;;;;;;;;;5055870;28;20442;-83
2021/08/27 04:10:14;;;;;;;18.60;17.50;;;;;;;;;;5056252;28;20446;-83
2021/08/27 04:12:42;;;;;;;19.10;17.63;;;;;;;;;;5055152;28;20445;-83
2021/08/27 04:15:10;;;;;;;18.27;16.90;;;;;;;;;;5055786;28;20771;-83
2021/08/27 04:17:37;;;;;;;19.03;17.50;;;;;;;;;;5055237;28;20446;-82
2021/08/27 04:20:05;;;;;;;18.63;17.37;;;;;;;;;;5055251;28;20447;-83
2021/08/27 04:22:33;;;;;;;18.07;16.87;;;;;;;;;;5055299;28;20428;-83
2021/08/27 04:25:02;;;;;;;18.40;17.10;;;;;;;;;;5055451;28;20406;-83
2021/08/27 04:27:29;;;;;;;19.20;17.37;;;;;;;;;;5055206;28;20420;-84
2021/08/27 04:29:57;;;;;;;19.50;17.43;;;;;;;;;;5054828;28;20469;-83
2021/08/27 04:32:24;;;;;;;19.23;17.97;;;;;;;;;;5055436;28;20435;-83
2021/08/27 04:34:51;;;;;;;18.47;17.13;;;;;;;;;;5055151;28;20417;-83
2021/08/27 04:37:19;;;;;;;19.53;17.90;;;;;;;;;;5055085;28;20439;-83
2021/08/27 04:39:46;;;;;;;18.43;17.03;;;;;;;;;;5054980;28;20414;-83
2021/08/27 04:42:15;;;;;;;18.83;17.47;;;;;;;;;;5055304;28;20831;-83
2021/08/27 04:44:42;;;;;;;19.30;18.10;;;;;;;;;;5054780;28;20398;-83
2021/08/27 04:47:10;;;;;;;18.30;17.20;;;;;;;;;;5055205;28;20451;-83
2021/08/27 04:49:37;;;;;;;18.43;17.13;;;;;;;;;;5055099;28;20474;-83
2021/08/27 04:52:05;;;;;;;19.80;18.50;;;;;;;;;;5054727;28;20470;-83
2021/08/27 04:54:33;;;;;;;18.93;17.53;;;;;;;;;;5036851;28;20450;-83
2021/08/27 04:57:00;;;;;;;19.40;18.07;;;;;;;;;;5054690;28;20406;-83
2021/08/27 04:59:29;;;;;;;18.53;16.97;;;;;;;;;;5054653;28;20435;-83
2021/08/27 05:01:59;;;;;;;18.83;17.60;;;;;;;;;;5054502;28;20453;-83
2021/08/27 05:04:26;;;;;;;17.97;16.83;;;;;;;;;;5054466;28;20575;-83
2021/08/27 05:06:54;;;;;;;18.73;17.40;;;;;;;;;;5054360;28;20891;-83
2021/08/27 05:09:21;;;;;;;19.10;17.80;;;;;;;;;;5054680;28;20461;-83
2021/08/27 05:11:49;;;;;;;18.67;17.43;;;;;;;;;;5036592;28;21017;-83
2021/08/27 05:14:16;;;;;;;18.77;17.57;;;;;;;;;;5054468;28;20443;-83
2021/08/27 05:16:45;;;;;;;19.50;18.10;;;;;;;;;;5054553;28;20410;-82
2021/08/27 05:19:12;;;;;;;18.87;17.77;;;;;;;;;;5054431;28;20769;-82
2021/08/27 05:21:40;;;;;;;19.13;17.80;;;;;;;;;;5054218;28;20462;-83
2021/08/27 05:24:07;;;;;;;18.57;17.53;;;;;;;;;;5054194;28;20447;-83
2021/08/27 05:26:35;;;;;;;20.10;19.10;;;;;;;;;;5054090;28;20453;-84
2021/08/27 05:29:03;;;;;;;18.93;17.73;;;;;;;;;;5054019;28;20453;-79
2021/08/27 05:31:30;;;;;;;20.73;19.17;;;;;;;;;;5054241;28;20442;-81
2021/08/27 05:33:59;;;;;;;19.30;18.10;;;;;;;;;;5053920;28;20406;-81
2021/08/27 05:36:27;;;;;;;19.63;18.33;;;;;;;;;;5054213;28;20945;-82
2021/08/27 05:38:54;;;;;;;19.70;18.30;;;;;;;;;;5054011;28;20406;-82
2021/08/27 05:41:21;;;;;;;19.60;18.10;;;;;;;;;;5053804;28;20409;-82
2021/08/27 05:43:49;;;;;;;21.60;19.83;;;;;;;;;;5053588;28;20782;-82
2021/08/27 05:46:16;;;;;;;21.47;20.07;;;;;;;;;;5053809;28;20416;-81
2021/08/27 05:48:43;;;;;;;20.23;19.03;;;;;;;;;;5053785;28;20453;-81
2021/08/27 05:51:12;;;;;;;20.70;19.27;;;;;;;;;;5053615;28;20409;-81
2021/08/27 05:53:39;;;;;;;20.33;19.03;;;;;;;;;;5053550;28;20444;-81
2021/08/27 05:56:07;;;;;;;20.03;18.60;;;;;;;;;;5053827;28;20450;-81
2021/08/27 05:58:34;;;;;;;21.77;20.17;;;;;;;;;;5053653;28;20413;-81
2021/08/27 06:01:01;;;;;;;21.00;19.40;;;;;;;;;;5054323;28;20430;-83
2021/08/27 06:03:29;;;;;;;20.57;19.10;;;;;;;;;;5053603;28;20434;-82
2021/08/27 06:05:56;;;;;;;20.67;19.37;;;;;;;;;;5053539;28;20446;-83
2021/08/27 06:08:25;;;;;;;21.40;20.00;;;;;;;;;;5053807;28;20390;-83
2021/08/27 06:10:52;;;;;;;20.13;19.03;;;;;;;;;;5053691;28;20474;-83
2021/08/27 06:13:19;;;;;;;21.63;19.80;;;;;;;;;;5053685;28;20770;-83
2021/08/27 06:15:47;;;;;;;22.03;20.50;;;;;;;;;;5053910;28;20472;-83
2021/08/27 06:18:14;;;;;;;21.07;19.87;;;;;;;;;;5053592;28;20402;-83
2021/08/27 06:20:42;;;;;;;21.17;19.93;;;;;;;;;;5053812;28;20425;-83
2021/08/27 06:23:09;;;;;;;21.63;20.43;;;;;;;;;;5036207;28;20447;-83
2021/08/27 06:25:39;;;;;;;21.20;20.00;;;;;;;;;;5053488;28;20484;-84
2021/08/27 06:28:07;;;;;;;22.00;20.50;;;;;;;;;;5036361;28;20475;-83
2021/08/27 06:30:34;;;;;;;22.27;20.90;;;;;;;;;;5053506;28;20501;-84
2021/08/27 06:33:02;;;;;;;21.87;20.30;;;;;;;;;;5053634;28;20462;-84
2021/08/27 06:35:30;;;;;;;21.80;19.83;;;;;;;;;;5053953;28;20426;-83
2021/08/27 06:40:44;;;;;;;22.10;20.73;;;;;;;;;;5053820;28;20479;-84
2021/08/27 06:43:11;;;;;;;22.63;20.83;;;;;;;;;;5057191;28;20409;-83
2021/08/27 06:45:39;;;;;;;22.23;20.83;;;;;;;;;;5057279;28;20424;-83
2021/08/27 06:48:07;;;;;;;22.83;21.40;;;;;;;;;;5057324;28;20883;-83
2021/08/27 06:50:38;;;;;;;22.03;20.70;;;;;;;;;;5056898;28;20497;-83
2021/08/27 06:53:05;;;;;;;23.87;21.80;;;;;;;;;;5057450;28;20772;-83
2021/08/27 06:55:33;;;;;;;23.30;21.20;;;;;;;;;;5056758;28;20450;-84
2021/08/27 06:58:02;;;;;;;23.00;21.30;;;;;;;;;;5057327;28;20524;-83
2021/08/27 07:00:29;;;;;;;22.40;20.70;;;;;;;;;;5056992;28;20874;-84
2021/08/27 07:02:57;;;;;;;21.93;20.30;;;;;;;;;;5056911;28;20461;-84
2021/08/27 07:05:25;;;;;;;21.67;20.00;;;;;;;;;;5057114;28;20426;-84
2021/08/27 07:07:52;;;;;;;20.80;19.53;;;;;;;;;;5057623;28;20436;-84
2021/08/27 07:10:19;;;;;;;20.80;19.70;;;;;;;;;;5056892;28;20837;-85
2021/08/27 07:12:48;;;;;;;24.13;22.13;;;;;;;;;;5056883;28;20417;-84
2021/08/27 07:15:17;;;;;;;21.73;20.17;;;;;;;;;;5057499;28;20413;-90
2021/08/27 07:17:45;;;;;;;22.00;20.60;;;;;;;;;;5039113;28;20467;-83
2021/08/27 07:20:13;;;;;;;21.40;19.93;;;;;;;;;;5056901;28;20448;-83
2021/08/27 07:22:41;;;;;;;20.17;19.07;;;;;;;;;;5055807;28;20912;-84
2021/08/27 07:25:09;;;;;;;21.70;20.00;;;;;;;;;;5056634;28;20820;-83
2021/08/27 07:27:36;;;;;;;19.37;18.23;;;;;;;;;;5056440;28;20421;-83
2021/08/27 07:30:04;;;;;;;20.57;19.07;;;;;;;;;;5022478;28;20504;-83
2021/08/27 07:32:33;;;;;;;21.30;19.80;;;;;;;;;;5056511;28;20406;-83
2021/08/27 07:35:00;;;;;;;19.90;18.60;;;;;;;;;;5056447;28;20432;-83
2021/08/27 07:37:28;;;;;;;23.07;21.33;;;;;;;;;;5056539;28;20446;-83
2021/08/27 07:39:55;;;;;;;20.60;19.50;;;;;;;;;;5056214;28;20439;-83
2021/08/27 07:42:23;;;;;;;20.97;19.67;;;;;;;;;;5056112;28;20414;-83
2021/08/27 07:44:50;;;;;;;23.30;21.37;;;;;;;;;;5056391;28;20440;-83
2021/08/27 07:47:18;;;;;;;22.80;20.87;;;;;;;;;;5056244;28;20419;-83
2021/08/27 07:49:46;;;;;;;23.80;21.27;;;;;;;;;;5038323;28;20549;-82
2021/08/27 07:52:14;;;;;;;22.87;20.73;;;;;;;;;;5055666;28;20776;-83
2021/08/27 07:54:41;;;;;;;21.23;19.80;;;;;;;;;;5055443;28;20431;-83
2021/08/27 07:57:09;;;;;;;21.80;20.20;;;;;;;;;;5056166;28;20449;-83
2021/08/27 07:59:36;;;;;;;19.67;18.57;;;;;;;;;;5056061;28;20443;-83
2021/08/27 08:02:04;;;;;;;20.90;19.70;;;;;;;;;;5056054;28;20442;-83
2021/08/27 08:04:31;;;;;;;21.97;20.57;;;;;;;;;;5056084;28;20442;-83
2021/08/27 08:07:00;;;;;;;25.47;20.37;;;;;;;;;;5056179;28;20852;-84
2021/08/27 08:09:27;;;;;;;20.40;19.00;;;;;;;;;;5056441;28;20474;-83
2021/08/27 08:11:55;;;;;;;20.43;19.23;;;;;;;;;;5055562;28;20475;-82
2021/08/27 08:14:22;;;;;;;20.00;18.70;;;;;;;;;;5055572;28;20438;-82
2021/08/27 08:16:49;;;;;;;19.70;18.50;;;;;;;;;;5055312;28;20417;-83
2021/08/27 08:19:17;;;;;;;19.90;18.63;;;;;;;;;;5055617;28;20424;-86
2021/08/27 08:21:45;;;;;;;20.80;19.60;;;;;;;;;;5055449;28;20455;-83
2021/08/27 08:24:13;;;;;;;20.90;19.47;;;;;;;;;;5055412;28;20407;-82
2021/08/27 08:26:41;;;;;;;22.60;20.83;;;;;;;;;;5055222;28;20462;-82
2021/08/27 08:29:08;;;;;;;21.50;20.30;;;;;;;;;;5055409;28;20780;-83
2021/08/27 08:31:36;;;;;;;20.37;19.27;;;;;;;;;;5037673;28;20443;-83
2021/08/27 08:34:04;;;;;;;21.17;19.77;;;;;;;;;;5055515;28;20437;-83
2021/08/27 08:36:31;;;;;;;21.30;19.90;;;;;;;;;;5055136;28;20449;-83
2021/08/27 08:38:59;;;;;;;22.20;20.50;;;;;;;;;;5040677;28;20447;-83
2021/08/27 08:41:28;;;;;;;21.10;19.70;;;;;;;;;;5035096;28;20407;-82
2021/08/27 08:43:55;;;;;;;20.73;19.40;;;;;;;;;;5041160;28;20981;-83
2021/08/27 08:46:23;;;;;;;19.67;18.60;;;;;;;;;;5046226;28;20437;-83
2021/08/27 08:48:52;;;;;;;19.73;18.73;;;;;;;;;;5034376;28;20445;-82
2021/08/27 08:51:20;;;;;;;20.63;19.07;;;;;;;;;;5034958;28;20985;-85
2021/08/27 08:53:49;;;;;;;20.20;19.00;;;;;;;;;;5035191;28;20424;-84
2021/08/27 08:56:17;;;;;;;19.80;18.50;;;;;;;;;;5035022;28;20950;-84
2021/08/27 08:58:46;;;;;;;20.13;18.90;;;;;;;;;;5034893;28;20472;-83
2021/08/27 09:01:17;;;;;;;20.23;18.93;;;;;;;;;;5035167;28;20431;-84
2021/08/27 09:03:45;;;;;;;20.20;18.87;;;;;;;;;;5034874;28;20441;-84
2021/08/27 09:06:12;;;;;;;20.00;18.63;;;;;;;;;;5035028;28;20410;-84
2021/08/27 09:08:40;;;;;;;19.47;18.20;;;;;;;;;;5017194;28;20448;-84
2021/08/27 09:11:15;;;;;;;19.90;18.40;;;;;;;;;;5034777;28;20866;-84
2021/08/27 09:13:42;;;;;;;21.13;19.60;;;;;;;;;;5034484;28;20930;-84
2021/08/27 09:16:12;;;;;;;19.57;18.27;;;;;;;;;;5035255;28;20408;-84
2021/08/27 09:18:40;;;;;;;19.30;18.10;;;;;;;;;;5034619;28;20419;-83
2021/08/27 09:21:25;;;;;;;20.50;19.27;;;;;;;;;;5035125;28;20430;-84
2021/08/27 09:23:53;;;;;;;19.43;18.10;;;;;;;;;;5034489;28;20897;-84
2021/08/27 09:26:36;;;;;;;18.70;17.70;;;;;;;;;;5034364;28;20481;-84
2021/08/27 09:29:03;;;;;;;20.00;18.80;;;;;;;;;;5034693;28;20414;-83
2021/08/27 09:31:34;;;;;;;19.70;18.50;;;;;;;;;;5034200;28;20958;-83
2021/08/27 09:34:01;;;;;;;19.33;18.33;;;;;;;;;;5034273;28;20477;-84
2021/08/27 09:36:30;;;;;;;19.23;18.13;;;;;;;;;;5034069;28;20455;-83
2021/08/27 09:39:02;;;;;;;18.87;17.83;;;;;;;;;;5034546;28;20417;-83
2021/08/27 09:41:29;;;;;;;19.33;18.20;;;;;;;;;;5034250;28;20429;-83
2021/08/27 09:43:57;;;;;;;19.97;18.67;;;;;;;;;;5034310;28;20420;-84
2021/08/27 09:46:36;;;;;;;19.30;18.30;;;;;;;;;;5034197;28;20422;-84
2021/08/27 09:49:05;;;;;;;18.80;17.70;;;;;;;;;;5034040;28;20440;-84
2021/08/27 09:51:42;;;;;;;18.97;17.83;;;;;;;;;;5033882;28;20470;-83
2021/08/27 09:54:10;;;;;;;19.87;18.43;;;;;;;;;;5034136;28;20441;-84
2021/08/27 09:56:44;;;;;;;19.77;18.40;;;;;;;;;;5034004;28;20431;-84
2021/08/27 09:59:13;;;;;;;20.23;18.50;;;;;;;;;;5034008;28;20415;-84
2021/08/27 10:01:49;;;;;;;20.00;18.73;;;;;;;;;;5033649;28;20858;-83
2021/08/27 10:04:16;;;;;;;20.53;18.97;;;;;;;;;;5033965;28;20432;-84
2021/08/27 10:06:43;;;;;;;18.97;17.97;;;;;;;;;;5034400;28;20445;-84
2021/08/27 10:09:11;;;;;;;19.80;18.70;;;;;;;;;;5033985;28;20453;-85
2021/08/27 10:11:39;;;;;;;19.43;18.33;;;;;;;;;;5033753;28;20873;-84
2021/08/27 10:14:07;;;;;;;21.10;19.60;;;;;;;;;;5033760;28;20445;-83
2021/08/27 10:16:35;;;;;;;19.47;18.10;;;;;;;;;;5033618;28;20408;-84
2021/08/27 10:19:05;;;;;;;20.33;18.77;;;;;;;;;;5033646;28;20436;-84
2021/08/27 10:21:33;;;;;;;20.07;18.77;;;;;;;;;;5033861;28;20947;-83
2021/08/27 10:24:00;;;;;;;19.60;18.60;;;;;;;;;;5033958;28;20426;-84
2021/08/27 10:26:29;;;;;;;19.93;18.53;;;;;;;;;;5033487;28;20469;-89
2021/08/27 10:28:56;;;;;;;20.00;18.43;;;;;;;;;;5031317;28;20457;-82
2021/08/27 10:31:44;;;;;;;21.20;19.90;;;;;;;;;;5015679;28;20463;-83
2021/08/27 10:34:13;;;;;;;19.20;18.20;;;;;;;;;;5033407;28;20422;-84
2021/08/27 10:36:51;;;;;;;21.07;19.70;;;;;;;;;;5015633;28;20427;-84
2021/08/27 10:39:51;;;;;;;21.13;19.43;;;;;;;;;;5033586;28;20406;-85
2021/08/27 10:42:37;;;;;;;22.47;20.93;;;;;;;;;;4973084;28;20427;-86
2021/08/27 10:45:05;;;;;;;23.47;22.20;;;;;;;;;;4973180;28;20987;-86
2021/08/27 10:47:32;;;;;;;22.50;21.20;;;;;;;;;;4973331;28;20566;-85
2021/08/27 10:50:02;;;;;;;23.37;21.87;;;;;;;;;;4973384;28;20410;-86
2021/08/27 10:52:32;;;;;;;24.00;21.97;;;;;;;;;;4973308;28;20459;-85
2021/08/27 10:55:10;;;;;;;27.77;25.77;;;;;;;;;;4972893;28;21008;-85
2021/08/27 10:57:48;;;;;;;24.83;23.27;;;;;;;;;;4972839;28;20456;-85
2021/08/27 11:00:30;;;;;;;24.53;23.10;;;;;;;;;;4956525;28;20788;-87
2021/08/27 11:02:58;;;;;;;22.80;21.40;;;;;;;;;;4972763;28;20850;-86
2021/08/27 11:05:46;;;;;;;23.20;22.00;;;;;;;;;;4972862;28;20422;-86
2021/08/27 11:08:15;;;;;;;23.10;21.80;;;;;;;;;;4972968;28;20980;-87
2021/08/27 11:10:43;;;;;;;22.53;21.30;;;;;;;;;;4972993;28;20470;-87
2021/08/27 11:13:12;;;;;;;23.43;22.20;;;;;;;;;;5002352;28;20850;-86
2021/08/27 11:15:40;;;;;;;22.43;21.37;;;;;;;;;;5033786;28;20752;-86
2021/08/27 11:18:24;;;;;;;29.97;28.37;;;;;;;;;;5033693;28;20446;-86
2021/08/27 11:20:55;;;;;;;30.03;28.13;;;;;;;;;;5033430;28;20446;-88
2021/08/27 11:23:22;;;;;;;27.83;26.53;;;;;;;;;;5032963;28;20980;-87
2021/08/27 11:26:00;;;;;;;26.50;25.10;;;;;;;;;;5033268;28;20458;-87
2021/08/27 11:28:28;;;;;;;24.23;22.83;;;;;;;;;;5035770;28;20913;-87
2021/08/27 11:31:02;;;;;;;24.07;22.50;;;;;;;;;;5037377;28;20473;-87
2021/08/27 11:34:04;;;;;;;24.27;22.77;;;;;;;;;;5036819;28;20419;-87
2021/08/27 11:36:36;;;;;;;21.70;20.37;;;;;;;;;;5037056;28;20450;-87
2021/08/27 11:39:08;;;;;;;21.53;20.43;;;;;;;;;;5019412;28;20415;-87
2021/08/27 11:41:36;;;;;;;21.93;20.63;;;;;;;;;;5036659;28;20411;-87
2021/08/27 11:44:05;;;;;;;21.37;20.07;;;;;;;;;;5036583;28;20408;-86
2021/08/27 11:46:33;;;;;;;22.07;20.53;;;;;;;;;;5036924;28;20802;-86
2021/08/27 11:49:01;;;;;;;22.10;20.20;;;;;;;;;;5036918;28;20411;-87
2021/08/27 11:51:30;;;;;;;20.60;19.50;;;;;;;;;;5036757;28;20492;-87
2021/08/27 11:53:59;;;;;;;30.37;27.50;;;;;;;;;;5036780;28;20407;-88
2021/08/27 11:56:28;;;;;;;32.53;30.90;;;;;;;;;;5036335;28;20445;-87
2021/08/27 11:58:55;;;;;;;39.60;37.20;;;;;;;;;;5036732;28;20905;-87
2021/08/27 12:01:26;;;;;;;61.40;51.80;;;;;;;;;;5036977;28;20426;-88
2021/08/27 12:03:54;;;;;;;55.80;51.30;;;;;;;;;;5036391;28;20460;-89
2021/08/27 12:06:21;;;;;;;49.87;47.03;;;;;;;;;;5036441;28;20753;-89
2021/08/27 12:08:49;;;;;;;48.73;46.13;;;;;;;;;;5018822;28;20498;-88
2021/08/27 12:11:29;;;;;;;51.00;48.40;;;;;;;;;;5036312;28;20479;-86
2021/08/27 12:13:57;;;;;;;44.63;42.33;;;;;;;;;;5036030;28;20437;-86
2021/08/27 12:16:24;;;;;;;46.33;43.53;;;;;;;;;;5036022;28;20511;-85
2021/08/27 12:18:52;;;;;;;44.60;42.20;;;;;;;;;;5035849;28;20412;-86
2021/08/27 12:21:20;;;;;;;41.73;39.53;;;;;;;;;;5036081;28;20424;-85
2021/08/27 12:23:58;;;;;;;42.13;39.83;;;;;;;;;;5036112;28;20409;-86
2021/08/27 12:26:29;;;;;;;41.27;38.67;;;;;;;;;;5035743;28;20480;-86
2021/08/27 12:28:56;;;;;;;39.37;37.17;;;;;;;;;;5036212;28;20917;-86
2021/08/27 12:31:24;;;;;;;40.03;37.93;;;;;;;;;;5018224;28;20484;-86
2021/08/27 12:33:51;;;;;;;38.03;35.87;;;;;;;;;;5035832;28;20839;-86
2021/08/27 12:36:19;;;;;;;37.83;35.53;;;;;;;;;;5018288;28;20407;-86
2021/08/27 12:38:46;;;;;;;37.23;35.23;;;;;;;;;;5035196;28;20457;-86
2021/08/27 12:41:14;;;;;;;38.80;36.60;;;;;;;;;;5035224;28;20471;-85
2021/08/27 12:43:43;;;;;;;41.33;39.17;;;;;;;;;;5035635;28;20484;-85
2021/08/27 12:46:26;;;;;;;35.90;34.00;;;;;;;;;;5035623;28;20450;-85
2021/08/27 12:49:12;;;;;;;40.23;37.43;;;;;;;;;;5035691;28;20435;-86
2021/08/27 12:51:41;;;;;;;37.97;35.83;;;;;;;;;;5035146;28;20455;-85
2021/08/27 12:54:09;;;;;;;37.70;35.60;;;;;;;;;;5035035;28;20441;-85
2021/08/27 12:56:36;;;;;;;38.70;36.70;;;;;;;;;;5034885;28;20791;-84
2021/08/27 12:59:17;;;;;;;39.70;37.30;;;;;;;;;;5035034;28;20452;-86
2021/08/27 13:01:44;;;;;;;40.03;37.90;;;;;;;;;;5034954;28;20479;-86
2021/08/27 13:04:12;;;;;;;37.30;35.40;;;;;;;;;;5034781;28;20462;-84
2021/08/27 13:06:40;;;;;;;40.70;38.40;;;;;;;;;;5035257;28;20443;-85
2021/08/27 13:09:10;;;;;;;41.23;39.00;;;;;;;;;;5035257;28;20444;-86
2021/08/27 13:11:47;;;;;;;44.37;42.17;;;;;;;;;;5035035;28;20488;-84
2021/08/27 13:14:20;;;;;;;41.33;39.23;;;;;;;;;;5034597;28;20915;-84
2021/08/27 13:16:51;;;;;;;43.30;41.10;;;;;;;;;;5035515;28;20440;-88
2021/08/27 13:19:18;;;;;;;45.17;42.70;;;;;;;;;;5035289;28;20425;-87
2021/08/27 13:21:46;;;;;;;44.00;41.80;;;;;;;;;;5034711;28;20448;-87
2021/08/27 13:24:14;;;;;;;44.93;42.77;;;;;;;;;;5034796;28;20415;-87
2021/08/27 13:26:42;;;;;;;48.67;46.37;;;;;;;;;;5034754;28;20543;-88
2021/08/27 13:29:09;;;;;;;48.80;46.50;;;;;;;;;;5033767;28;20442;-87
2021/08/27 13:31:49;;;;;;;45.73;43.30;;;;;;;;;;5035344;28;20495;-87
2021/08/27 13:34:17;;;;;;;45.60;43.40;;;;;;;;;;5034835;28;20436;-87
2021/08/27 13:36:44;;;;;;;45.53;43.37;;;;;;;;;;5034724;28;20422;-86
2021/08/27 13:39:13;;;;;;;44.77;42.67;;;;;;;;;;5035415;28;20423;-86
2021/08/27 13:41:41;;;;;;;44.50;42.40;;;;;;;;;;5034449;28;20433;-86
2021/08/27 13:44:08;;;;;;;44.37;42.37;;;;;;;;;;5034110;28;20926;-85
2021/08/27 13:46:37;;;;;;;46.07;43.83;;;;;;;;;;5034333;28;20411;-86
2021/08/27 13:49:06;;;;;;;42.30;40.30;;;;;;;;;;5034321;28;20435;-86
2021/08/27 13:51:34;;;;;;;45.70;43.60;;;;;;;;;;5033601;28;20480;-86
2021/08/27 13:54:04;;;;;;;44.10;41.90;;;;;;;;;;5034337;28;20436;-91
2021/08/27 13:56:32;;;;;;;43.80;41.60;;;;;;;;;;5034179;28;20453;-86
2021/08/27 13:59:01;;;;;;;42.50;40.50;;;;;;;;;;5033985;28;20449;-85
2021/08/27 14:01:29;;;;;;;44.27;42.10;;;;;;;;;;5017261;28;20479;-86
2021/08/27 14:03:56;;;;;;;43.07;41.07;;;;;;;;;;5034324;28;20499;-85
2021/08/27 14:06:25;;;;;;;43.90;41.80;;;;;;;;;;5034244;28;20454;-85
2021/08/27 14:08:52;;;;;;;43.77;41.70;;;;;;;;;;5034302;28;20480;-86
2021/08/27 14:11:20;;;;;;;41.00;38.80;;;;;;;;;;5034167;28;20476;-86
2021/08/27 14:13:47;;;;;;;40.83;38.83;;;;;;;;;;5034173;28;20803;-86
2021/08/27 14:16:14;;;;;;;40.93;38.93;;;;;;;;;;5034147;28;20914;-86
2021/08/27 14:18:42;;;;;;;37.53;35.77;;;;;;;;;;5033926;28;20788;-85
2021/08/27 14:21:09;;;;;;;39.57;37.67;;;;;;;;;;5034032;28;20485;-85
2021/08/27 14:23:38;;;;;;;37.50;35.70;;;;;;;;;;5033832;28;20400;-86
2021/08/27 14:26:06;;;;;;;38.03;36.23;;;;;;;;;;5033515;28;20462;-85
2021/08/27 14:28:33;;;;;;;38.50;36.70;;;;;;;;;;5033755;28;20450;-86
2021/08/27 14:31:00;;;;;;;36.90;35.10;;;;;;;;;;5034105;28;20625;-85